Time;durP1;ratioP1;P1;durP2;ratioP2;P2;SDS_P1;SDS_P2;PMS_P1;PMS_P2;Temp;Humidity;BMP_temperature;BMP_pressure;BME280_temperature;BME280_humidity;BME280_pressure;Samples;Min_cycle;Max_cycle;Signal;HPM_P1;HPM_P2
2021/12/23 00:00:21;;;;;;;38.10;18.40;;;-0.80;67.80;;;;;;7379612;19;20127;-59
2021/12/23 00:02:50;;;;;;;40.33;18.33;;;-0.90;66.60;;;;;;7378373;19;20135;-59
2021/12/23 00:05:20;;;;;;;40.35;18.50;;;-0.90;66.50;;;;;;7381207;19;20127;-58
2021/12/23 00:07:50;;;;;;;36.33;17.73;;;-0.80;66.40;;;;;;7384627;19;20132;-59
2021/12/23 00:10:22;;;;;;;37.75;19.30;;;-0.90;66.80;;;;;;7373818;19;20185;-55
2021/12/23 00:12:51;;;;;;;35.00;18.85;;;-1.00;66.40;;;;;;7374777;19;20128;-55
2021/12/23 00:15:30;;;;;;;38.25;18.20;;;-1.00;66.60;;;;;;7377649;19;20134;-55
2021/12/23 00:18:05;;;;;;;37.13;17.73;;;-1.10;67.20;;;;;;7382529;19;20123;-55
2021/12/23 00:23:29;;;;;;;29.13;17.00;;;-1.10;67.30;;;;;;7376410;19;20130;-55
2021/12/23 00:26:05;;;;;;;35.67;17.33;;;-1.00;66.90;;;;;;7380033;19;20131;-55
2021/12/23 00:28:34;;;;;;;30.55;16.33;;;-1.00;66.70;;;;;;7379473;19;20484;-55
2021/12/23 00:31:06;;;;;;;35.97;18.75;;;-1.10;66.80;;;;;;7377317;19;20136;-55
2021/12/23 00:33:39;;;;;;;33.03;17.65;;;-1.10;66.90;;;;;;7377476;19;20135;-54
2021/12/23 00:36:10;;;;;;;33.67;18.80;;;-1.00;66.80;;;;;;7380647;19;20191;-55
2021/12/23 00:38:44;;;;;;;34.97;18.45;;;-1.20;67.00;;;;;;7378474;19;20241;-55
2021/12/23 00:41:16;;;;;;;31.27;16.77;;;-1.40;68.00;;;;;;7380830;19;20161;-58
2021/12/23 00:43:46;;;;;;;33.72;16.70;;;-1.50;68.10;;;;;;7378421;19;20132;-59
2021/12/23 00:46:15;;;;;;;37.92;18.42;;;-1.40;68.80;;;;;;7369621;19;20680;-58
2021/12/23 00:48:45;;;;;;;36.58;18.83;;;-1.30;68.30;;;;;;7377694;19;20128;-58
2021/12/23 00:51:15;;;;;;;40.15;18.42;;;-1.20;67.70;;;;;;7379152;19;20139;-58
2021/12/23 00:53:47;;;;;;;34.95;15.98;;;-1.20;67.50;;;;;;7381540;19;20128;-58
2021/12/23 00:56:19;;;;;;;33.45;17.30;;;-1.20;67.00;;;;;;7379104;19;20131;-59
2021/12/23 00:58:51;;;;;;;36.85;17.42;;;-1.40;67.60;;;;;;7384520;19;20138;-59
2021/12/23 01:01:21;;;;;;;32.25;16.10;;;-1.50;68.40;;;;;;7376893;19;20231;-59
2021/12/23 01:03:50;;;;;;;32.22;17.20;;;-1.30;68.20;;;;;;7381749;19;20124;-59
2021/12/23 01:06:22;;;;;;;35.30;17.60;;;-1.30;67.50;;;;;;7374421;19;20134;-59
2021/12/23 01:08:52;;;;;;;35.80;18.77;;;-1.20;67.60;;;;;;7381759;19;20134;-58
2021/12/23 01:11:25;;;;;;;41.17;19.77;;;-1.30;67.60;;;;;;7370821;19;20646;-59
2021/12/23 01:14:14;;;;;;;33.15;18.02;;;-1.30;67.70;;;;;;7384452;19;20157;-59
2021/12/23 01:17:11;;;;;;;36.90;18.13;;;-1.20;67.70;;;;;;7382972;19;20491;-59
2021/12/23 01:19:49;;;;;;;35.47;16.80;;;-1.30;68.40;;;;;;7384984;19;20123;-59
2021/12/23 01:22:19;;;;;;;36.65;17.58;;;-1.20;67.90;;;;;;7375683;19;20545;-59
2021/12/23 01:24:49;;;;;;;38.15;17.05;;;-1.10;67.80;;;;;;7381253;19;20135;-59
2021/12/23 01:27:21;;;;;;;36.05;17.10;;;-1.00;67.60;;;;;;7380678;19;20124;-59
2021/12/23 01:29:51;;;;;;;36.00;19.27;;;-1.00;66.80;;;;;;7378172;19;20135;-59
2021/12/23 01:32:21;;;;;;;38.67;17.60;;;-1.00;67.10;;;;;;7377896;19;20252;-59
2021/12/23 01:34:51;;;;;;;34.95;17.65;;;-0.90;66.80;;;;;;7381501;19;20138;-59
2021/12/23 01:37:20;;;;;;;31.23;17.38;;;-1.00;66.20;;;;;;7376304;19;20131;-59
2021/12/23 01:39:50;;;;;;;31.45;17.60;;;-0.90;67.20;;;;;;7375810;19;20517;-55
2021/12/23 01:42:22;;;;;;;34.83;17.05;;;-0.80;65.80;;;;;;7378241;19;20615;-55
2021/12/23 01:44:52;;;;;;;36.05;17.27;;;-0.80;65.90;;;;;;7379817;19;20132;-56
2021/12/23 01:47:21;;;;;;;32.42;15.57;;;-0.90;66.10;;;;;;7380255;19;20128;-55
2021/12/23 01:49:51;;;;;;;33.15;15.90;;;-0.90;65.80;;;;;;7383821;19;20143;-55
2021/12/23 01:52:21;;;;;;;36.50;18.38;;;-0.90;66.80;;;;;;7378353;19;20135;-55
2021/12/23 01:54:50;;;;;;;28.92;17.05;;;-0.70;66.40;;;;;;7378753;19;20131;-56
2021/12/23 01:57:23;;;;;;;30.23;16.98;;;-0.70;65.60;;;;;;7378401;19;20473;-55
2021/12/23 01:59:54;;;;;;;39.20;18.73;;;-0.60;65.10;;;;;;7380698;19;20127;-55
2021/12/23 02:02:27;;;;;;;35.00;17.50;;;-0.60;64.90;;;;;;7380186;19;20139;-55
2021/12/23 02:04:57;;;;;;;35.30;18.25;;;-0.60;64.30;;;;;;7382334;19;20127;-55
2021/12/23 02:07:26;;;;;;;41.42;18.30;;;-0.60;65.50;;;;;;7374295;19;20498;-55
2021/12/23 02:09:58;;;;;;;35.03;18.40;;;-0.60;64.50;;;;;;7378113;19;20147;-56
2021/12/23 02:12:31;;;;;;;33.22;16.30;;;-0.60;64.50;;;;;;7372663;19;20479;-56
2021/12/23 02:15:01;;;;;;;30.08;15.88;;;-0.70;64.60;;;;;;7378247;19;20134;-56
2021/12/23 02:17:30;;;;;;;32.33;16.83;;;-0.70;64.70;;;;;;7378543;19;20128;-55
2021/12/23 02:20:02;;;;;;;37.25;17.70;;;-0.70;64.90;;;;;;7370332;19;20673;-55
2021/12/23 02:22:32;;;;;;;35.97;16.60;;;-0.70;64.80;;;;;;7367525;19;20527;-55
2021/12/23 02:25:01;;;;;;;30.15;16.15;;;-0.80;64.70;;;;;;7370778;19;20586;-55
2021/12/23 02:27:31;;;;;;;35.63;17.83;;;-0.80;65.20;;;;;;7379497;19;20692;-55
2021/12/23 02:30:04;;;;;;;36.42;16.40;;;-0.80;65.00;;;;;;7379492;19;20633;-55
2021/12/23 02:32:34;;;;;;;33.28;17.40;;;-0.80;65.00;;;;;;7375872;19;20167;-55
2021/12/23 02:35:07;;;;;;;32.58;15.95;;;-0.90;65.00;;;;;;7377132;19;20143;-55
2021/12/23 02:37:39;;;;;;;40.17;18.38;;;-0.80;64.80;;;;;;7378325;19;20140;-55
2021/12/23 02:40:11;;;;;;;31.08;17.38;;;-0.70;64.60;;;;;;7375511;19;20139;-55
2021/12/23 02:42:43;;;;;;;34.38;17.85;;;-0.70;64.60;;;;;;7370864;19;20175;-55
2021/12/23 02:45:12;;;;;;;32.17;17.52;;;-0.70;64.40;;;;;;7374353;19;20132;-55
2021/12/23 02:47:42;;;;;;;30.40;15.18;;;-0.70;64.60;;;;;;7385333;19;20413;-55
2021/12/23 02:50:14;;;;;;;30.73;16.13;;;-0.70;64.40;;;;;;7387807;19;20119;-55
2021/12/23 02:52:44;;;;;;;31.13;17.30;;;-0.60;64.00;;;;;;7385747;19;20124;-55
2021/12/23 02:55:13;;;;;;;34.13;15.82;;;-0.70;64.10;;;;;;7382690;19;20138;-55
2021/12/23 02:57:43;;;;;;;35.42;16.58;;;-0.50;64.20;;;;;;7382107;19;20669;-55
2021/12/23 03:00:13;;;;;;;31.02;14.70;;;-0.50;63.80;;;;;;7382982;19;20221;-55
2021/12/23 03:02:44;;;;;;;37.33;18.52;;;-0.60;63.20;;;;;;7385786;19;20622;-56
2021/12/23 03:05:16;;;;;;;32.60;18.00;;;-0.50;63.10;;;;;;7389254;19;20127;-55
2021/12/23 03:07:46;;;;;;;33.20;16.85;;;-0.60;63.00;;;;;;7378570;19;20614;-55
2021/12/23 03:10:15;;;;;;;31.92;16.63;;;-0.60;63.10;;;;;;7377222;19;20183;-55
2021/12/23 03:12:47;;;;;;;30.23;15.77;;;-0.70;63.40;;;;;;7385784;19;20127;-55
2021/12/23 03:15:17;;;;;;;31.25;16.92;;;-0.80;64.10;;;;;;7383817;19;20135;-55
2021/12/23 03:17:47;;;;;;;33.50;16.27;;;-0.60;63.80;;;;;;7387629;19;20724;-56
2021/12/23 03:20:19;;;;;;;32.83;16.10;;;-0.70;62.90;;;;;;7384609;19;20146;-55
2021/12/23 03:22:48;;;;;;;32.90;16.55;;;-0.80;64.30;;;;;;7382551;19;20629;-56
2021/12/23 03:25:18;;;;;;;33.10;16.30;;;-0.90;64.30;;;;;;7378667;19;20294;-55
2021/12/23 03:27:47;;;;;;;30.80;15.05;;;-1.00;64.90;;;;;;7382437;19;20143;-55
2021/12/23 03:30:17;;;;;;;28.60;15.63;;;-1.00;65.10;;;;;;7378556;19;20143;-55
2021/12/23 03:32:47;;;;;;;31.95;16.23;;;-1.00;65.10;;;;;;7381458;19;21235;-55
2021/12/23 03:35:19;;;;;;;27.38;14.73;;;-1.00;65.00;;;;;;7387433;19;20156;-55
2021/12/23 03:37:48;;;;;;;37.03;17.23;;;-0.90;64.70;;;;;;7381186;19;20131;-55
2021/12/23 03:40:18;;;;;;;32.63;15.98;;;-1.00;65.30;;;;;;7377307;19;20139;-55
2021/12/23 03:42:47;;;;;;;31.02;16.10;;;-1.10;65.80;;;;;;7385414;19;20131;-55
2021/12/23 03:45:17;;;;;;;32.30;15.73;;;-1.20;65.90;;;;;;7381184;19;20192;-55
2021/12/23 03:47:48;;;;;;;30.15;16.08;;;-1.20;66.30;;;;;;7385334;19;20150;-56
2021/12/23 03:50:23;;;;;;;31.80;16.83;;;-1.00;65.70;;;;;;7379002;19;20132;-59
2021/12/23 03:52:53;;;;;;;36.72;16.83;;;-1.00;65.10;;;;;;7378812;19;20194;-59
2021/12/23 03:55:23;;;;;;;36.50;17.63;;;-1.20;66.40;;;;;;7380613;19;20128;-59
2021/12/23 03:57:53;;;;;;;33.28;16.58;;;-1.00;66.20;;;;;;7377770;19;20136;-58
2021/12/23 04:00:25;;;;;;;29.85;14.98;;;-1.00;65.40;;;;;;7381413;19;20156;-59
2021/12/23 04:02:55;;;;;;;39.22;16.17;;;-0.90;65.00;;;;;;7386591;19;20131;-59
2021/12/23 04:05:27;;;;;;;26.40;14.15;;;-0.90;65.20;;;;;;7380897;19;20633;-59
2021/12/23 04:07:56;;;;;;;31.77;15.90;;;-0.80;64.90;;;;;;7377813;19;20137;-58
2021/12/23 04:10:26;;;;;;;29.73;16.58;;;-0.80;65.00;;;;;;7372513;19;20190;-59
2021/12/23 04:12:56;;;;;;;31.35;17.17;;;-0.70;63.90;;;;;;7379121;19;20745;-59
2021/12/23 04:15:26;;;;;;;30.92;18.25;;;-0.70;64.00;;;;;;7379690;19;20606;-59
2021/12/23 04:17:55;;;;;;;28.52;14.07;;;-1.40;62.80;;;;;;7384460;19;21837;-59
2021/12/23 04:20:32;;;;;;;29.20;15.90;;;-0.60;63.30;;;;;;7381977;19;20123;-59
2021/12/23 04:23:03;;;;;;;32.30;15.95;;;-0.70;63.20;;;;;;7379475;19;20146;-59
2021/12/23 04:25:32;;;;;;;27.67;15.00;;;-0.70;63.10;;;;;;7381357;19;20630;-59
2021/12/23 04:28:05;;;;;;;29.25;15.93;;;-0.70;63.50;;;;;;7380919;19;20650;-59
2021/12/23 04:30:36;;;;;;;29.88;15.52;;;-0.70;63.50;;;;;;7379821;19;20158;-59
2021/12/23 04:33:05;;;;;;;28.58;16.00;;;-0.60;63.60;;;;;;7380239;19;20178;-59
2021/12/23 04:35:37;;;;;;;32.33;15.23;;;-0.70;63.50;;;;;;7380170;19;20187;-59
2021/12/23 04:38:08;;;;;;;27.88;15.05;;;-0.60;63.80;;;;;;7381016;19;20124;-59
2021/12/23 04:40:38;;;;;;;28.65;16.02;;;-0.50;62.80;;;;;;7381913;19;20647;-59
2021/12/23 04:43:09;;;;;;;30.88;14.93;;;-0.40;62.90;;;;;;7380284;19;20151;-59
2021/12/23 04:45:39;;;;;;;26.13;14.80;;;-0.30;62.10;;;;;;7383989;19;20720;-59
2021/12/23 04:48:08;;;;;;;29.02;15.15;;;-0.30;62.40;;;;;;7387728;19;20128;-59
2021/12/23 04:50:41;;;;;;;22.13;13.18;;;-0.20;62.00;;;;;;7375352;19;20144;-59
2021/12/23 04:53:10;;;;;;;30.25;14.48;;;-0.20;61.80;;;;;;7383999;19;20132;-59
2021/12/23 04:55:43;;;;;;;23.52;12.50;;;-0.10;60.50;;;;;;7381492;19;20141;-59
2021/12/23 04:58:12;;;;;;;25.73;13.40;;;-0.10;60.10;;;;;;7382352;19;20495;-59
2021/12/23 05:00:42;;;;;;;29.42;15.57;;;-0.20;60.70;;;;;;7381930;19;20123;-59
2021/12/23 05:03:11;;;;;;;28.73;14.60;;;-0.10;61.40;;;;;;7379999;19;20115;-59
2021/12/23 05:05:44;;;;;;;25.60;12.48;;;-0.20;60.80;;;;;;7377601;19;20132;-59
2021/12/23 05:08:14;;;;;;;29.58;14.15;;;-0.10;60.60;;;;;;7379073;19;20131;-59
2021/12/23 05:10:45;;;;;;;26.08;12.25;;;-0.10;60.80;;;;;;7371186;19;20274;-59
2021/12/23 05:13:14;;;;;;;26.67;14.30;;;0.00;60.00;;;;;;7382689;19;20572;-59
2021/12/23 05:15:44;;;;;;;21.25;11.95;;;0.10;60.00;;;;;;7375425;19;20633;-59
2021/12/23 05:18:14;;;;;;;24.73;12.43;;;0.10;59.50;;;;;;7379230;19;20123;-59
2021/12/23 05:20:49;;;;;;;24.88;11.80;;;0.20;59.70;;;;;;7382631;19;20634;-55
2021/12/23 05:23:19;;;;;;;26.73;14.15;;;0.00;59.80;;;;;;7375755;19;20708;-55
2021/12/23 05:25:49;;;;;;;23.42;13.20;;;0.00;60.60;;;;;;7378634;19;20165;-55
2021/12/23 05:28:18;;;;;;;26.85;13.38;;;0.00;60.20;;;;;;7378620;19;20132;-55
2021/12/23 05:30:48;;;;;;;26.33;13.60;;;0.10;60.60;;;;;;7375079;19;20593;-55
2021/12/23 05:33:17;;;;;;;28.33;13.63;;;0.10;59.70;;;;;;7376220;19;20135;-55
2021/12/23 05:35:49;;;;;;;23.98;13.23;;;0.10;59.70;;;;;;7375292;19;20220;-55
2021/12/23 05:38:19;;;;;;;29.33;14.32;;;0.00;60.60;;;;;;7379570;19;20123;-56
2021/12/23 05:40:51;;;;;;;28.73;14.10;;;0.00;60.20;;;;;;7378753;19;20161;-56
2021/12/23 05:43:21;;;;;;;27.05;13.63;;;-0.10;59.40;;;;;;7375977;19;20124;-55
2021/12/23 05:45:50;;;;;;;27.42;13.02;;;-0.10;59.30;;;;;;7380623;19;20127;-55
2021/12/23 05:48:20;;;;;;;24.67;13.20;;;0.00;59.60;;;;;;7378097;19;20123;-55
2021/12/23 05:50:52;;;;;;;24.13;12.20;;;0.00;59.50;;;;;;7378869;19;20136;-59
2021/12/23 05:53:22;;;;;;;20.70;12.70;;;-0.10;59.70;;;;;;7378396;19;20135;-59
2021/12/23 05:55:53;;;;;;;26.77;12.85;;;-0.10;59.60;;;;;;7380485;19;20171;-59
2021/12/23 05:58:22;;;;;;;24.75;12.82;;;-0.20;60.10;;;;;;7380452;19;20123;-59
2021/12/23 06:00:53;;;;;;;26.13;12.40;;;-0.20;60.10;;;;;;7380518;19;20139;-59
2021/12/23 06:03:22;;;;;;;21.55;11.30;;;-0.20;60.30;;;;;;7381190;19;20131;-59
2021/12/23 06:05:55;;;;;;;22.77;12.15;;;-0.20;60.00;;;;;;7380879;19;20141;-59
2021/12/23 06:08:24;;;;;;;21.65;11.68;;;-0.20;59.70;;;;;;7376216;19;20629;-59
2021/12/23 06:10:54;;;;;;;24.75;12.98;;;-0.20;59.40;;;;;;7373982;19;20669;-60
2021/12/23 06:13:23;;;;;;;28.45;13.60;;;-0.10;59.60;;;;;;7382362;19;20128;-59
2021/12/23 06:15:53;;;;;;;25.88;14.32;;;-0.10;60.40;;;;;;7376047;19;20132;-59
2021/12/23 06:18:22;;;;;;;30.83;15.32;;;-0.10;60.70;;;;;;7381814;19;20128;-59
2021/12/23 06:20:54;;;;;;;30.75;15.52;;;-0.20;60.80;;;;;;7378397;19;20135;-56
2021/12/23 06:23:26;;;;;;;29.38;16.98;;;-0.10;61.50;;;;;;7382154;19;20139;-55
2021/12/23 06:25:56;;;;;;;34.10;15.93;;;0.00;61.30;;;;;;7382435;19;20655;-55
2021/12/23 06:28:26;;;;;;;29.77;14.55;;;0.00;61.40;;;;;;7381698;19;20128;-56
2021/12/23 06:30:55;;;;;;;28.88;14.00;;;0.00;60.80;;;;;;7379019;19;20148;-55
2021/12/23 06:33:25;;;;;;;26.80;15.88;;;0.40;61.00;;;;;;7378803;19;20216;-55
2021/12/23 06:35:57;;;;;;;29.77;15.02;;;-0.20;60.90;;;;;;7370601;19;21175;-55
2021/12/23 06:38:27;;;;;;;23.08;12.35;;;-0.30;61.50;;;;;;7379963;19;20484;-55
2021/12/23 06:40:56;;;;;;;27.38;12.85;;;-0.20;61.70;;;;;;7377199;19;20127;-55
2021/12/23 06:43:26;;;;;;;29.55;15.38;;;-0.30;61.50;;;;;;7375676;19;20131;-55
2021/12/23 06:45:58;;;;;;;25.17;12.65;;;-0.20;62.10;;;;;;7374545;19;20457;-55
2021/12/23 06:48:27;;;;;;;27.42;14.50;;;-0.30;62.20;;;;;;7375592;19;20140;-55
2021/12/23 06:51:00;;;;;;;26.58;14.00;;;-0.40;62.40;;;;;;7379839;19;20464;-59
2021/12/23 06:53:34;;;;;;;23.85;13.52;;;-0.30;63.00;;;;;;7376287;19;20851;-59
2021/12/23 06:56:03;;;;;;;27.77;13.50;;;-0.10;62.30;;;;;;7383698;19;20136;-59
2021/12/23 06:58:35;;;;;;;26.92;13.93;;;-0.10;61.90;;;;;;7382781;19;20616;-59
2021/12/23 07:01:05;;;;;;;28.58;15.27;;;-0.10;61.90;;;;;;7381034;19;20128;-59
2021/12/23 07:03:52;;;;;;;30.25;14.00;;;-0.20;62.00;;;;;;7386379;19;20143;-59
2021/12/23 07:06:25;;;;;;;22.83;12.88;;;-0.20;62.50;;;;;;7375976;19;20134;-59
2021/12/23 07:08:55;;;;;;;30.15;15.07;;;-0.40;63.00;;;;;;7364440;19;20602;-59
2021/12/23 07:11:25;;;;;;;30.20;16.45;;;-0.40;63.20;;;;;;7367061;19;20622;-59
2021/12/23 07:13:54;;;;;;;32.47;15.70;;;-0.40;63.40;;;;;;7372962;19;20127;-59
2021/12/23 07:16:24;;;;;;;31.10;17.15;;;-0.40;64.00;;;;;;7383928;19;20132;-59
2021/12/23 07:18:53;;;;;;;33.72;14.85;;;-0.40;64.20;;;;;;7377794;19;20636;-59
2021/12/23 07:21:25;;;;;;;31.30;15.27;;;-0.30;64.30;;;;;;7378102;19;21171;-56
2021/12/23 07:23:55;;;;;;;27.42;15.65;;;-0.30;64.40;;;;;;7374003;19;20126;-56
2021/12/23 07:26:25;;;;;;;28.92;15.82;;;-0.30;64.00;;;;;;7379589;19;20191;-55
2021/12/23 07:28:56;;;;;;;34.13;15.45;;;-0.30;64.30;;;;;;7376358;19;20222;-56
2021/12/23 07:31:26;;;;;;;30.15;16.83;;;-0.20;64.60;;;;;;7373643;19;20446;-55
2021/12/23 07:33:55;;;;;;;31.77;17.50;;;-0.10;63.30;;;;;;7365444;19;20124;-55
2021/12/23 07:36:30;;;;;;;30.42;17.40;;;-0.20;63.50;;;;;;7373200;19;20128;-55
2021/12/23 07:39:01;;;;;;;30.80;17.02;;;-0.10;63.40;;;;;;7375128;19;20613;-55
2021/12/23 07:41:30;;;;;;;38.72;19.48;;;-0.20;64.10;;;;;;7371103;19;20134;-55
2021/12/23 07:44:04;;;;;;;36.60;18.33;;;0.00;64.50;;;;;;7379633;19;20478;-55
2021/12/23 07:46:38;;;;;;;36.58;19.65;;;-0.10;63.70;;;;;;7377290;19;20504;-55
2021/12/23 07:49:08;;;;;;;34.65;17.55;;;-0.20;64.10;;;;;;7382746;19;20124;-55
2021/12/23 07:51:41;;;;;;;29.13;16.02;;;-0.20;64.60;;;;;;7378542;19;20124;-55
2021/12/23 07:54:10;;;;;;;33.47;17.55;;;-0.30;65.20;;;;;;7380066;19;20162;-55
2021/12/23 07:56:40;;;;;;;31.45;17.92;;;-0.30;65.40;;;;;;7376950;19;20120;-55
2021/12/23 07:59:10;;;;;;;33.33;17.10;;;-0.30;65.40;;;;;;7366696;19;20547;-56
2021/12/23 08:01:39;;;;;;;28.15;16.80;;;-0.30;65.70;;;;;;7371082;19;20203;-55
2021/12/23 08:04:09;;;;;;;28.55;16.75;;;-0.30;65.40;;;;;;7373335;19;20157;-55
2021/12/23 08:06:42;;;;;;;31.38;16.38;;;0.30;65.70;;;;;;7355384;19;20570;-55
2021/12/23 08:09:14;;;;;;;28.30;15.05;;;-0.20;65.60;;;;;;7355521;19;20123;-55
2021/12/23 08:11:48;;;;;;;28.02;13.30;;;-0.30;65.80;;;;;;7335288;19;20667;-55
2021/12/23 08:14:18;;;;;;;30.98;12.55;;;-0.20;66.10;;;;;;7349314;19;20495;-56
2021/12/23 08:16:48;;;;;;;26.63;13.93;;;-0.20;66.00;;;;;;7371845;19;20797;-55
2021/12/23 08:19:18;;;;;;;30.75;13.30;;;0.00;66.10;;;;;;7374540;19;20131;-55
2021/12/23 08:21:50;;;;;;;27.92;12.73;;;0.10;66.00;;;;;;7371193;19;20231;-55
2021/12/23 08:24:20;;;;;;;28.75;15.20;;;0.30;65.20;;;;;;7366319;19;20123;-55
2021/12/23 08:26:52;;;;;;;30.63;13.23;;;0.40;64.50;;;;;;7374423;19;20472;-55
2021/12/23 08:29:23;;;;;;;36.63;15.75;;;0.60;64.00;;;;;;7380385;19;20128;-55
2021/12/23 08:31:54;;;;;;;27.88;15.20;;;0.70;63.70;;;;;;7376272;19;20134;-55
2021/12/23 08:34:23;;;;;;;26.60;13.38;;;0.90;63.20;;;;;;7362180;19;20136;-55
2021/12/23 08:36:56;;;;;;;34.42;14.80;;;1.00;62.50;;;;;;7372503;19;20709;-55
2021/12/23 08:39:26;;;;;;;24.80;14.55;;;1.10;62.70;;;;;;7371043;19;20139;-55
2021/12/23 08:41:55;;;;;;;28.48;13.65;;;1.10;62.60;;;;;;7371481;19;20142;-56
2021/12/23 08:44:25;;;;;;;34.92;13.57;;;1.30;62.20;;;;;;7369638;19;20134;-55
2021/12/23 08:46:54;;;;;;;25.15;14.48;;;1.50;61.40;;;;;;7372418;19;20599;-55
2021/12/23 08:49:24;;;;;;;30.15;15.48;;;1.50;61.30;;;;;;7382008;19;20760;-55
2021/12/23 08:51:59;;;;;;;31.50;15.40;;;1.70;61.00;;;;;;7378427;19;20135;-55
2021/12/23 08:54:28;;;;;;;24.95;14.15;;;1.80;60.30;;;;;;7365190;19;21003;-54
2021/12/23 08:56:58;;;;;;;28.40;14.15;;;1.90;59.90;;;;;;7372891;19;20168;-56
2021/12/23 08:59:27;;;;;;;24.50;15.63;;;2.00;59.10;;;;;;7377037;19;20601;-56
2021/12/23 09:01:57;;;;;;;33.13;15.73;;;2.00;58.10;;;;;;7374910;19;20135;-56
2021/12/23 09:04:26;;;;;;;31.70;15.30;;;2.20;58.50;;;;;;7369184;19;20621;-56
2021/12/23 09:06:58;;;;;;;26.10;13.75;;;2.30;58.00;;;;;;7374538;19;20127;-55
2021/12/23 09:09:31;;;;;;;23.73;12.75;;;2.30;58.30;;;;;;7355833;19;20151;-56
2021/12/23 09:12:01;;;;;;;21.92;12.70;;;2.40;58.40;;;;;;7372262;19;20154;-56
2021/12/23 09:14:35;;;;;;;23.15;12.50;;;2.70;58.10;;;;;;7374421;19;20247;-56
2021/12/23 09:17:05;;;;;;;21.73;11.75;;;2.90;57.90;;;;;;7368515;19;20124;-56
2021/12/23 09:19:35;;;;;;;24.70;13.77;;;3.20;57.10;;;;;;7378209;19;20143;-56
2021/12/23 09:22:08;;;;;;;25.38;12.48;;;3.30;56.80;;;;;;7380296;19;20142;-56
2021/12/23 09:24:41;;;;;;;25.00;11.70;;;3.20;56.80;;;;;;7378803;19;20143;-56
2021/12/23 09:27:21;;;;;;;22.83;13.13;;;3.20;56.70;;;;;;7379756;19;20135;-56
2021/12/23 09:35:29;;;;;;;31.40;16.88;;;2.90;56.40;;;;;;7379810;19;20171;-55
2021/12/23 09:38:02;;;;;;;20.83;13.45;;;2.80;57.40;;;;;;7380366;19;20167;-56
2021/12/23 09:40:34;;;;;;;23.25;12.40;;;2.80;58.40;;;;;;7376870;19;20123;-56
2021/12/23 09:43:05;;;;;;;22.27;11.73;;;2.90;58.60;;;;;;7382574;19;20128;-56
2021/12/23 09:45:36;;;;;;;21.85;13.25;;;3.10;58.50;;;;;;7383802;19;20127;-56
2021/12/23 09:48:07;;;;;;;28.70;14.13;;;3.30;58.80;;;;;;7382197;19;20142;-56
2021/12/23 09:50:39;;;;;;;23.60;13.95;;;3.40;58.10;;;;;;7386143;19;20153;-56
2021/12/23 09:53:18;;;;;;;28.80;15.85;;;3.40;57.50;;;;;;7382456;19;20127;-56
2021/12/23 09:55:48;;;;;;;27.05;15.98;;;3.50;57.70;;;;;;7384421;19;20139;-56
2021/12/23 09:58:18;;;;;;;28.77;15.50;;;3.50;57.80;;;;;;7388864;19;20131;-56
2021/12/23 10:00:47;;;;;;;28.83;14.15;;;3.50;58.00;;;;;;7390503;19;20123;-59
2021/12/23 10:03:20;;;;;;;26.15;14.93;;;3.60;58.50;;;;;;7387446;19;20139;-59
2021/12/23 10:05:50;;;;;;;29.65;15.93;;;3.70;58.40;;;;;;7393187;19;20128;-59
2021/12/23 10:08:25;;;;;;;31.45;17.15;;;3.80;57.80;;;;;;7386450;19;20911;-60
2021/12/23 10:11:03;;;;;;;28.85;16.48;;;3.90;57.10;;;;;;7384971;19;20522;-59
2021/12/23 10:30:40;;;;;;;29.67;16.17;;;4.50;55.50;;;;;;7388934;19;20127;-59
2021/12/23 10:33:31;;;;;;;28.60;14.98;;;4.50;55.40;;;;;;7387134;19;20703;-59
2021/12/23 10:39:01;;;;;;;29.75;16.55;;;4.50;56.20;;;;;;7382247;19;20248;-59
2021/12/23 10:41:33;;;;;;;28.15;13.07;;;4.50;56.10;;;;;;7383561;19;20625;-59
2021/12/23 10:44:05;;;;;;;27.58;14.00;;;4.60;56.20;;;;;;7386950;19;20136;-59
2021/12/23 10:46:38;;;;;;;27.90;15.48;;;4.60;56.00;;;;;;7386976;19;21673;-59
2021/12/23 10:49:24;;;;;;;30.88;16.02;;;4.60;55.80;;;;;;7388503;19;20123;-60
2021/12/23 10:52:03;;;;;;;24.13;14.18;;;4.80;55.80;;;;;;7387990;19;20131;-59
2021/12/23 11:00:20;;;;;;;33.65;16.42;;;4.90;55.40;;;;;;7387227;19;21095;-59
2021/12/23 11:03:08;;;;;;;29.30;15.88;;;5.00;55.30;;;;;;7388796;19;21061;-59
2021/12/23 11:05:44;;;;;;;29.15;14.75;;;5.20;55.10;;;;;;7382755;19;20875;-59
2021/12/23 11:08:29;;;;;;;23.10;12.95;;;5.30;55.00;;;;;;7383870;19;20131;-59
2021/12/23 11:28:03;;;;;;;13.63;7.78;;;6.30;54.70;;;;;;7385681;19;20124;-59
2021/12/23 11:36:35;;;;;;;11.00;7.70;;;6.60;54.10;;;;;;7383095;19;20131;-59
2021/12/23 11:39:26;;;;;;;12.85;6.45;;;6.70;54.10;;;;;;7387654;19;20481;-59
2021/12/23 11:42:04;;;;;;;12.25;6.82;;;6.70;54.10;;;;;;7386664;19;20638;-59
2021/12/23 11:44:34;;;;;;;11.57;6.82;;;6.80;53.80;;;;;;7385801;19;20138;-59
2021/12/23 11:47:11;;;;;;;9.48;6.40;;;6.80;53.80;;;;;;7381717;19;20146;-60
2021/12/23 11:49:44;;;;;;;10.20;6.47;;;6.90;53.70;;;;;;7387293;19;20123;-59
2021/12/23 11:52:14;;;;;;;11.43;6.32;;;7.00;53.60;;;;;;7385635;19;20637;-59
2021/12/23 11:54:47;;;;;;;10.93;7.57;;;7.10;53.30;;;;;;7386148;19;20610;-60
2021/12/23 11:57:19;;;;;;;11.02;6.00;;;7.30;53.10;;;;;;7387486;19;20188;-59
2021/12/23 12:00:04;;;;;;;8.65;5.07;;;7.30;52.60;;;;;;7385442;19;20660;-60
2021/12/23 12:02:38;;;;;;;10.55;6.03;;;7.40;52.70;;;;;;7382889;19;20131;-59
2021/12/23 12:05:15;;;;;;;15.77;8.35;;;7.40;52.50;;;;;;7385318;19;20159;-59
2021/12/23 12:07:45;;;;;;;12.32;6.20;;;7.40;52.50;;;;;;7386644;19;20139;-60
2021/12/23 12:10:24;;;;;;;9.40;5.43;;;7.40;52.50;;;;;;7383635;19;20182;-56
2021/12/23 12:13:01;;;;;;;9.57;6.20;;;7.40;52.30;;;;;;7385821;19;20155;-56
2021/12/23 12:15:49;;;;;;;14.50;8.30;;;7.50;52.50;;;;;;7387447;19;20489;-56
2021/12/23 12:18:26;;;;;;;10.60;5.50;;;7.50;52.20;;;;;;7384849;19;20183;-56
2021/12/23 12:21:00;;;;;;;9.07;5.90;;;7.50;52.00;;;;;;7384846;19;21144;-56
2021/12/23 12:23:33;;;;;;;12.73;5.80;;;7.70;52.00;;;;;;7383470;19;20127;-56
2021/12/23 12:26:08;;;;;;;11.18;5.57;;;7.70;51.90;;;;;;7362320;19;20140;-56
2021/12/23 12:28:44;;;;;;;44.63;11.32;;;7.80;51.80;;;;;;7376667;19;20176;-56
2021/12/23 12:31:20;;;;;;;19.67;9.25;;;7.80;51.50;;;;;;7363208;19;20143;-56
2021/12/23 12:34:02;;;;;;;19.77;10.45;;;7.80;51.60;;;;;;7368585;19;20593;-57
2021/12/23 12:36:35;;;;;;;16.05;9.57;;;7.80;51.70;;;;;;7363027;19;20166;-57
2021/12/23 12:39:23;;;;;;;13.32;8.55;;;7.80;51.90;;;;;;7376945;19;20595;-56
2021/12/23 12:42:00;;;;;;;11.35;6.50;;;7.70;52.10;;;;;;7372800;19;20637;-56
2021/12/23 12:44:44;;;;;;;15.65;6.72;;;7.70;52.30;;;;;;7374037;19;20156;-56
2021/12/23 12:47:24;;;;;;;7.22;5.22;;;7.70;52.50;;;;;;7373942;19;20760;-56
2021/12/23 12:50:09;;;;;;;9.85;5.25;;;7.60;52.40;;;;;;7375227;19;20174;-56
2021/12/23 12:52:45;;;;;;;6.07;4.43;;;7.60;52.80;;;;;;7381855;19;20634;-56
2021/12/23 12:55:23;;;;;;;8.85;3.70;;;7.60;52.70;;;;;;7373931;19;20130;-56
2021/12/23 12:57:54;;;;;;;6.38;4.25;;;7.60;52.50;;;;;;7377191;19;20174;-56
2021/12/23 13:00:31;;;;;;;6.78;3.90;;;7.60;52.60;;;;;;7375366;19;20140;-56
2021/12/23 13:03:06;;;;;;;7.97;3.50;;;7.60;52.40;;;;;;7371867;19;20594;-56
2021/12/23 13:05:42;;;;;;;5.70;3.95;;;7.60;52.40;;;;;;7375703;19;20134;-56
2021/12/23 13:08:23;;;;;;;10.60;4.60;;;7.60;52.40;;;;;;7370336;19;20214;-56
2021/12/23 13:11:21;;;;;;;5.35;4.05;;;7.70;52.30;;;;;;7357299;19;20178;-56
2021/12/23 13:14:12;;;;;;;5.40;3.70;;;7.70;52.10;;;;;;7369399;19;20135;-56
2021/12/23 13:17:02;;;;;;;4.85;3.60;;;7.70;52.00;;;;;;7348310;19;21301;-56
2021/12/23 13:19:34;;;;;;;9.35;4.03;;;7.70;52.10;;;;;;7374193;19;20139;-56
2021/12/23 13:22:14;;;;;;;6.80;4.30;;;7.80;52.10;;;;;;7370807;19;20834;-56
2021/12/23 13:24:47;;;;;;;7.55;4.45;;;7.80;52.10;;;;;;7380955;19;20537;-57
2021/12/23 13:27:16;;;;;;;16.77;4.68;;;7.80;52.10;;;;;;7376492;19;20723;-56
2021/12/23 13:29:46;;;;;;;8.43;5.18;;;7.90;52.10;;;;;;7375086;19;20143;-56
2021/12/23 13:32:16;;;;;;;10.80;4.57;;;7.90;52.40;;;;;;7375905;19;20135;-56
2021/12/23 13:34:45;;;;;;;7.15;4.68;;;7.80;51.80;;;;;;7375077;19;20913;-56
2021/12/23 13:37:17;;;;;;;7.10;4.63;;;7.80;52.00;;;;;;7374397;19;20485;-56
2021/12/23 13:39:51;;;;;;;5.35;4.25;;;7.90;51.90;;;;;;7374033;19;20564;-56
2021/12/23 13:42:21;;;;;;;6.80;4.40;;;7.90;51.90;;;;;;7380641;19;20741;-56
2021/12/23 13:44:51;;;;;;;5.07;3.90;;;7.90;52.10;;;;;;7368391;19;20170;-56
2021/12/23 13:47:22;;;;;;;6.07;3.97;;;7.80;51.80;;;;;;7374168;19;20139;-56
2021/12/23 13:49:54;;;;;;;6.22;3.85;;;7.90;51.70;;;;;;7375377;19;20712;-59
2021/12/23 13:52:29;;;;;;;5.88;4.18;;;7.90;51.70;;;;;;7380464;19;20140;-59
2021/12/23 13:55:01;;;;;;;6.28;4.10;;;7.90;51.60;;;;;;7380476;19;20127;-59